createdAt,value
2023-04-29T00:01:40.014Z,8.20
2023-04-29T00:04:08.152Z,5.72
2023-04-29T00:06:35.566Z,5.45
2023-04-29T00:09:04.386Z,4.95
2023-04-29T00:11:31.686Z,5.88
2023-04-29T00:13:59.165Z,8.70
2023-04-29T00:16:27.589Z,6.07
2023-04-29T00:18:55.237Z,6.03
2023-04-29T00:21:22.729Z,6.30
2023-04-29T00:23:49.946Z,5.82
2023-04-29T00:26:17.127Z,5.93
2023-04-29T00:28:47.267Z,12.13
2023-04-29T00:31:14.853Z,11.45
2023-04-29T00:33:42.721Z,9.60
2023-04-29T00:36:10.176Z,6.00
2023-04-29T00:38:37.445Z,7.25
2023-04-29T00:41:04.959Z,6.35
2023-04-29T00:43:32.231Z,4.80
2023-04-29T00:45:59.705Z,8.40
2023-04-29T00:48:26.964Z,6.80
2023-04-29T00:50:54.174Z,7.10
2023-04-29T00:53:23.378Z,14.00
2023-04-29T00:55:52.097Z,6.60
2023-04-29T00:58:20.187Z,7.25
2023-04-29T01:00:49.636Z,8.25
2023-04-29T01:03:17.007Z,6.70
2023-04-29T01:05:52.303Z,8.50
2023-04-29T01:08:43.620Z,10.98
2023-04-29T01:11:13.061Z,9.25
2023-04-29T01:13:54.584Z,5.90
2023-04-29T01:16:48.901Z,7.25
2023-04-29T01:19:57.075Z,8.57
2023-04-29T01:22:24.787Z,14.70
2023-04-29T01:24:52.145Z,7.75
2023-04-29T01:27:39.857Z,11.88
2023-04-29T01:30:57.160Z,8.32
2023-04-29T01:33:40.984Z,6.28
2023-04-29T01:36:31.470Z,7.78
2023-04-29T01:39:26.597Z,9.90
2023-04-29T01:42:29.882Z,12.23
2023-04-29T01:45:03.470Z,12.77
2023-04-29T01:47:31.135Z,8.77
2023-04-29T01:49:58.467Z,5.95
2023-04-29T01:52:25.731Z,7.65
2023-04-29T01:54:57.510Z,8.93
2023-04-29T01:57:27.297Z,6.82
2023-04-29T02:00:05.730Z,8.85
2023-04-29T02:02:45.452Z,6.10
2023-04-29T02:05:22.780Z,8.70
2023-04-29T02:07:56.851Z,7.68
2023-04-29T02:10:24.362Z,6.63
2023-04-29T02:12:59.911Z,6.28
2023-04-29T02:15:28.849Z,5.72
2023-04-29T02:17:56.301Z,7.45
2023-04-29T02:20:23.793Z,7.35
2023-04-29T02:22:51.541Z,6.88
2023-04-29T02:25:18.880Z,7.85
2023-04-29T02:27:46.101Z,6.80
2023-04-29T02:30:13.318Z,7.50
2023-04-29T02:32:41.417Z,9.18
2023-04-29T02:35:09.230Z,8.88
2023-04-29T02:37:36.370Z,8.05
2023-04-29T02:40:03.978Z,6.63
2023-04-29T02:42:31.585Z,6.47
2023-04-29T02:45:01.572Z,7.85
2023-04-29T02:47:28.943Z,7.40
2023-04-29T02:49:56.187Z,7.07
2023-04-29T02:52:23.464Z,7.63
2023-04-29T02:54:50.890Z,6.72
2023-04-29T02:57:18.558Z,8.32
2023-04-29T02:59:45.876Z,8.60
2023-04-29T03:02:13.089Z,6.60
2023-04-29T03:04:41.126Z,6.95
2023-04-29T03:07:08.419Z,5.38
2023-04-29T03:09:37.108Z,5.82
2023-04-29T03:12:04.930Z,5.90
2023-04-29T03:14:32.237Z,7.57
2023-04-29T03:16:59.746Z,10.70
2023-04-29T03:19:27.005Z,10.77
2023-04-29T03:21:54.275Z,9.20
2023-04-29T03:24:22.189Z,7.95
2023-04-29T03:26:49.390Z,10.75
2023-04-29T03:29:19.615Z,6.60
2023-04-29T03:31:47.680Z,8.80
2023-04-29T03:34:15.410Z,9.80
2023-04-29T03:36:48.563Z,11.50
2023-04-29T03:39:15.821Z,8.73
2023-04-29T03:41:43.486Z,5.65
2023-04-29T03:44:10.904Z,9.23
2023-04-29T03:46:39.717Z,6.65
2023-04-29T03:49:06.959Z,8.95
2023-04-29T03:51:34.480Z,6.72
2023-04-29T03:54:14.048Z,8.85
2023-04-29T03:56:41.764Z,8.02
2023-04-29T03:59:09.516Z,6.57
2023-04-29T04:01:38.440Z,9.13
2023-04-29T04:04:05.909Z,9.35
2023-04-29T04:06:33.816Z,9.60
2023-04-29T04:09:01.142Z,7.03
2023-04-29T04:11:30.750Z,9.15
2023-04-29T04:14:01.150Z,6.95
2023-04-29T04:16:28.727Z,11.23
2023-04-29T04:18:56.030Z,11.30
2023-04-29T04:21:23.672Z,10.45
2023-04-29T04:24:00.973Z,10.73
2023-04-29T04:26:29.684Z,8.82
2023-04-29T04:29:08.139Z,7.82
2023-04-29T04:31:49.636Z,8.95
2023-04-29T04:34:18.914Z,8.10
2023-04-29T04:36:48.673Z,14.70
2023-04-29T04:39:16.037Z,6.95
2023-04-29T04:41:43.486Z,9.35
2023-04-29T04:44:10.964Z,9.48
2023-04-29T04:46:52.268Z,7.32
2023-04-29T04:49:34.536Z,11.60
2023-04-29T04:52:02.153Z,11.57
2023-04-29T04:54:29.381Z,6.43
2023-04-29T04:57:06.350Z,7.57
2023-04-29T04:59:34.515Z,6.43
2023-04-29T05:02:02.060Z,10.48
2023-04-29T05:04:29.916Z,8.73
2023-04-29T05:06:57.344Z,7.55
2023-04-29T05:09:27.649Z,11.82
2023-04-29T05:11:56.132Z,8.38
2023-04-29T05:14:23.517Z,5.63
2023-04-29T05:16:51.642Z,8.80
2023-04-29T05:19:20.174Z,8.77
2023-04-29T05:21:47.391Z,11.40
2023-04-29T05:24:15.398Z,9.63
2023-04-29T05:26:44.143Z,10.80
2023-04-29T05:29:12.290Z,12.60
2023-04-29T05:31:51.487Z,6.18
2023-04-29T05:34:18.890Z,9.35
2023-04-29T05:36:46.692Z,8.00
2023-04-29T05:39:14.076Z,7.15
2023-04-29T05:41:42.405Z,15.95
2023-04-29T05:44:17.381Z,11.60
2023-04-29T05:46:48.849Z,8.63
2023-04-29T05:49:16.830Z,8.93
2023-04-29T05:51:44.265Z,6.85
2023-04-29T05:54:11.504Z,9.48
2023-04-29T05:56:38.841Z,13.75
2023-04-29T05:59:06.041Z,8.63
2023-04-29T06:01:33.832Z,9.30
2023-04-29T06:04:01.702Z,10.32
2023-04-29T06:07:02.627Z,8.18
2023-04-29T06:09:48.722Z,8.05
2023-04-29T06:12:16.418Z,5.57
2023-04-29T06:14:46.355Z,14.63
2023-04-29T06:17:14.148Z,11.55
2023-04-29T06:19:42.231Z,6.90
2023-04-29T06:22:10.528Z,6.25
2023-04-29T06:24:40.625Z,9.57
2023-04-29T06:27:09.230Z,7.97
2023-04-29T06:29:37.677Z,6.55
2023-04-29T06:32:05.288Z,8.45
2023-04-29T06:34:33.083Z,8.98
2023-04-29T06:37:29.723Z,8.45
2023-04-29T06:40:26.383Z,10.73
2023-04-29T06:43:20.090Z,13.45
2023-04-29T06:46:08.671Z,10.55
2023-04-29T06:48:40.767Z,7.78
2023-04-29T06:51:08.358Z,7.40
2023-04-29T06:53:37.676Z,10.23
2023-04-29T06:56:05.779Z,8.60
2023-04-29T06:58:33.139Z,4.32
2023-04-29T07:01:01.207Z,5.15
2023-04-29T07:03:28.736Z,6.80
2023-04-29T07:05:57.739Z,4.95
2023-04-29T07:08:25.326Z,8.32
2023-04-29T07:10:57.763Z,7.47
2023-04-29T07:13:26.138Z,5.95
2023-04-29T07:15:53.472Z,5.78
2023-04-29T07:18:20.934Z,4.78
2023-04-29T07:20:48.558Z,6.47
2023-04-29T07:23:16.086Z,5.50
2023-04-29T07:25:43.428Z,5.72
2023-04-29T07:28:10.692Z,5.65
2023-04-29T07:30:38.728Z,7.15
2023-04-29T07:33:06.217Z,7.63
2023-04-29T07:35:34.418Z,5.90
2023-04-29T07:38:01.949Z,3.72
2023-04-29T07:40:31.983Z,7.53
2023-04-29T07:42:59.617Z,6.97
2023-04-29T07:45:26.929Z,9.40
2023-04-29T07:47:54.366Z,6.53
2023-04-29T07:50:22.759Z,5.72
2023-04-29T07:52:50.134Z,9.73
2023-04-29T07:55:17.857Z,6.15
2023-04-29T07:57:45.184Z,8.05
2023-04-29T08:00:13.125Z,7.78
2023-04-29T08:02:44.050Z,5.13
2023-04-29T08:05:14.407Z,6.82
2023-04-29T08:07:41.919Z,5.05
2023-04-29T08:10:09.919Z,9.98
2023-04-29T08:12:38.025Z,4.38
2023-04-29T08:15:07.801Z,6.57
2023-04-29T08:17:37.622Z,6.18
2023-04-29T08:20:05.911Z,5.85
2023-04-29T08:22:33.832Z,7.80
2023-04-29T08:25:03.227Z,6.63
2023-04-29T08:27:31.186Z,5.97
2023-04-29T08:29:58.727Z,7.65
2023-04-29T08:32:26.135Z,7.10
2023-04-29T08:34:53.707Z,6.22
2023-04-29T08:37:21.187Z,10.60
2023-04-29T08:39:49.114Z,6.68
2023-04-29T08:42:21.250Z,10.55
2023-04-29T08:44:50.308Z,7.30
2023-04-29T08:47:18.146Z,9.68
2023-04-29T08:49:45.576Z,10.20
2023-04-29T08:52:13.077Z,6.38
2023-04-29T08:54:41.552Z,8.25
2023-04-29T08:57:12.166Z,8.38
2023-04-29T08:59:39.577Z,7.22
2023-04-29T09:02:13.239Z,8.98
2023-04-29T09:04:52.719Z,7.32
2023-04-29T09:07:20.612Z,6.78
2023-04-29T09:09:49.680Z,8.75
2023-04-29T09:12:17.021Z,5.30
2023-04-29T09:14:44.516Z,6.20
2023-04-29T09:17:11.850Z,10.52
2023-04-29T09:19:39.230Z,18.13
2023-04-29T09:22:08.294Z,8.40
2023-04-29T09:24:35.936Z,10.65
2023-04-29T09:27:04.627Z,19.77
2023-04-29T09:29:33.253Z,23.00
2023-04-29T09:32:00.909Z,17.02
2023-04-29T09:34:37.495Z,8.63
2023-04-29T09:37:05.249Z,9.55
2023-04-29T09:39:40.132Z,9.32
2023-04-29T09:42:09.128Z,7.35
2023-04-29T09:44:36.504Z,8.43
2023-04-29T09:47:09.191Z,8.18
2023-04-29T09:49:41.209Z,5.68
2023-04-29T09:52:15.116Z,9.02
2023-04-29T09:54:44.460Z,9.32
2023-04-29T09:57:15.850Z,11.23
2023-04-29T09:59:43.679Z,6.82
2023-04-29T10:02:16.167Z,7.85
2023-04-29T10:04:47.804Z,6.43
2023-04-29T10:07:20.325Z,7.22
2023-04-29T10:09:49.130Z,7.85
2023-04-29T10:12:21.092Z,6.95
2023-04-29T10:15:04.388Z,10.30
2023-04-29T10:17:52.997Z,10.25
2023-04-29T10:20:25.501Z,7.53
2023-04-29T10:22:56.715Z,12.50
2023-04-29T10:25:26.306Z,10.20
2023-04-29T10:27:55.323Z,13.45
2023-04-29T10:30:23.171Z,11.90
2023-04-29T10:32:52.783Z,15.07
2023-04-29T10:35:25.672Z,14.93
2023-04-29T10:37:54.320Z,14.35
2023-04-29T10:40:40.419Z,18.33
2023-04-29T10:43:07.874Z,15.95
2023-04-29T10:45:36.460Z,19.65
2023-04-29T10:48:06.689Z,17.48
2023-04-29T10:51:03.555Z,17.17
2023-04-29T10:53:31.290Z,15.05
2023-04-29T10:56:11.335Z,19.88
2023-04-29T10:58:46.811Z,19.13
2023-04-29T11:01:18.108Z,16.38
2023-04-29T11:03:58.943Z,17.48
2023-04-29T11:06:41.584Z,15.02
2023-04-29T11:09:22.598Z,15.35
2023-04-29T11:11:56.423Z,16.80
2023-04-29T11:14:43.383Z,18.88
2023-04-29T11:17:16.732Z,16.40
2023-04-29T11:19:50.453Z,16.30
2023-04-29T11:22:24.240Z,16.95
2023-04-29T11:25:01.035Z,16.25
2023-04-29T11:27:33.332Z,16.95
2023-04-29T11:30:03.924Z,16.00
2023-04-29T11:32:37.111Z,15.88
2023-04-29T11:35:16.155Z,11.25
2023-04-29T11:37:45.935Z,14.80
2023-04-29T11:40:14.832Z,14.73
2023-04-29T11:42:46.589Z,12.23
2023-04-29T11:45:15.271Z,12.07
2023-04-29T11:47:48.051Z,16.70
2023-04-29T11:50:19.299Z,9.95
2023-04-29T11:52:48.479Z,9.27
2023-04-29T11:55:16.070Z,15.55
2023-04-29T11:57:43.925Z,15.68
2023-04-29T12:00:13.748Z,19.75
2023-04-29T12:02:46.481Z,15.32
2023-04-29T12:05:15.843Z,13.18
2023-04-29T12:07:43.780Z,16.70
2023-04-29T12:10:12.612Z,16.60
2023-04-29T12:12:47.566Z,20.35
2023-04-29T12:15:15.526Z,14.45
2023-04-29T12:17:43.944Z,14.68
2023-04-29T12:20:12.869Z,14.05
2023-04-29T12:22:43.617Z,11.07
2023-04-29T12:25:11.513Z,12.02
2023-04-29T12:27:44.245Z,11.65
2023-04-29T12:30:12.952Z,11.75
2023-04-29T12:32:41.052Z,10.38
2023-04-29T12:35:19.417Z,10.43
2023-04-29T12:37:52.836Z,7.03
2023-04-29T12:40:21.076Z,8.00
2023-04-29T12:42:49.032Z,9.50
2023-04-29T12:45:34.134Z,7.45
2023-04-29T12:48:03.323Z,8.75
2023-04-29T12:50:38.869Z,7.75
2023-04-29T12:53:08.256Z,8.73
2023-04-29T12:55:37.581Z,9.13
2023-04-29T12:58:06.015Z,11.13
2023-04-29T13:00:35.066Z,7.72
2023-04-29T13:03:02.659Z,7.00
2023-04-29T13:05:30.069Z,7.57
2023-04-29T13:07:57.691Z,11.57
2023-04-29T13:10:25.051Z,7.68
2023-04-29T13:12:52.277Z,8.23
2023-04-29T13:15:19.793Z,6.88
2023-04-29T13:17:47.341Z,6.90
2023-04-29T13:20:15.419Z,11.10
2023-04-29T13:22:43.699Z,4.88
2023-04-29T13:25:16.384Z,4.78
2023-04-29T13:27:44.321Z,8.02
2023-04-29T13:30:12.150Z,6.93
2023-04-29T13:32:45.000Z,10.20
2023-04-29T13:35:18.782Z,4.93
2023-04-29T13:37:46.672Z,4.40
2023-04-29T13:40:20.362Z,3.72
2023-04-29T13:42:50.462Z,3.08
2023-04-29T13:45:24.262Z,2.35
2023-04-29T13:50:54.046Z,2.55
2023-04-29T13:56:34.822Z,2.58
2023-04-29T14:03:27.593Z,1.98
2023-04-29T14:05:55.079Z,2.38
2023-04-29T14:08:22.306Z,4.72
2023-04-29T14:10:49.587Z,1.80
2023-04-29T14:13:17.800Z,3.67
2023-04-29T14:15:44.988Z,1.25
2023-04-29T14:18:12.552Z,2.47
2023-04-29T14:20:39.825Z,1.90
2023-04-29T14:23:07.083Z,1.98
2023-04-29T14:25:34.372Z,2.60
2023-04-29T14:28:01.773Z,1.48
2023-04-29T14:30:29.060Z,2.03
2023-04-29T14:32:56.470Z,1.63
2023-04-29T14:35:23.881Z,1.35
2023-04-29T14:37:51.529Z,2.70
2023-04-29T14:40:18.765Z,4.45
2023-04-29T14:42:46.006Z,1.70
2023-04-29T14:45:13.376Z,1.25
2023-04-29T14:47:40.717Z,1.45
2023-04-29T14:50:09.263Z,1.05
2023-04-29T14:52:36.724Z,1.90
2023-04-29T14:55:04.583Z,1.60
2023-04-29T14:57:31.874Z,3.33
2023-04-29T14:59:59.191Z,1.80
2023-04-29T15:02:26.823Z,2.10
2023-04-29T15:04:54.993Z,2.00
2023-04-29T15:07:23.066Z,1.75
2023-04-29T15:09:50.960Z,1.52
2023-04-29T15:12:20.105Z,1.40
2023-04-29T15:14:47.694Z,2.88
2023-04-29T15:17:15.018Z,2.03
2023-04-29T15:19:42.396Z,2.22
2023-04-29T15:22:09.718Z,2.65
2023-04-29T15:24:37.309Z,1.77
2023-04-29T15:27:04.702Z,2.22
2023-04-29T15:29:34.400Z,2.35
2023-04-29T15:32:01.971Z,2.42
2023-04-29T15:34:29.302Z,4.53
2023-04-29T15:36:57.054Z,3.85
2023-04-29T15:39:24.519Z,7.97
2023-04-29T15:41:53.711Z,30.05
2023-04-29T15:44:21.089Z,336.63
2023-04-29T15:46:48.706Z,275.95
2023-04-29T15:49:16.028Z,68.07
2023-04-29T15:51:43.198Z,117.03
2023-04-29T15:54:10.726Z,33.83
2023-04-29T15:56:38.884Z,4.65
2023-04-29T15:59:06.537Z,6.20
2023-04-29T16:01:36.201Z,3.92
2023-04-29T16:04:03.958Z,3.70
2023-04-29T16:06:31.367Z,3.55
2023-04-29T16:08:58.854Z,5.72
2023-04-29T16:11:26.410Z,3.17
2023-04-29T16:13:54.050Z,4.82
2023-04-29T16:16:21.964Z,5.22
2023-04-29T16:18:49.489Z,5.53
2023-04-29T16:21:17.603Z,3.35
2023-04-29T16:23:45.073Z,7.07
2023-04-29T16:26:12.638Z,4.72
2023-04-29T16:28:40.731Z,6.75
2023-04-29T16:31:07.966Z,4.30
2023-04-29T16:33:35.301Z,3.80
2023-04-29T16:36:03.139Z,3.50
2023-04-29T16:38:30.515Z,4.00
2023-04-29T16:40:58.029Z,5.32
2023-04-29T16:43:25.319Z,5.70
2023-04-29T16:45:52.640Z,4.95
2023-04-29T16:51:08.693Z,6.28
2023-04-29T16:53:36.809Z,5.63
2023-04-29T16:56:04.420Z,4.85
2023-04-29T16:58:31.773Z,5.82
2023-04-29T17:00:59.248Z,5.07
2023-04-29T17:03:26.549Z,4.45
2023-04-29T17:05:53.963Z,3.90
2023-04-29T17:08:21.384Z,6.80
2023-04-29T17:10:48.654Z,7.00
2023-04-29T17:13:16.501Z,5.63
2023-04-29T17:15:43.861Z,7.00
2023-04-29T17:18:11.334Z,5.70
2023-04-29T17:20:39.153Z,5.82
2023-04-29T17:23:06.554Z,9.77
2023-04-29T17:25:33.799Z,4.20
2023-04-29T17:28:01.229Z,10.55
2023-04-29T17:30:28.723Z,7.10
2023-04-29T17:32:56.231Z,4.80
2023-04-29T17:35:23.537Z,7.82
2023-04-29T17:37:50.869Z,7.97
2023-04-29T17:40:18.538Z,7.22
2023-04-29T17:42:45.938Z,8.30
2023-04-29T17:45:13.395Z,6.38
2023-04-29T17:47:40.644Z,10.68
2023-04-29T17:50:08.478Z,7.00
2023-04-29T17:52:36.119Z,10.20
2023-04-29T17:55:03.706Z,7.72
2023-04-29T17:57:31.189Z,8.05
2023-04-29T17:59:58.510Z,9.05
2023-04-29T18:02:26.002Z,10.00
2023-04-29T18:04:54.078Z,6.45
2023-04-29T18:07:21.375Z,8.20
2023-04-29T18:09:48.653Z,9.55
2023-04-29T18:12:16.005Z,11.50
2023-04-29T18:14:43.483Z,9.13
2023-04-29T18:17:10.896Z,9.05
2023-04-29T18:19:38.145Z,8.85
2023-04-29T18:22:06.310Z,10.88
2023-04-29T18:24:33.787Z,18.33
2023-04-29T18:27:02.399Z,16.75
2023-04-29T18:29:29.676Z,16.45
2023-04-29T18:31:57.143Z,16.88
2023-04-29T18:34:24.546Z,12.88
2023-04-29T18:36:52.328Z,16.80
2023-04-29T18:39:19.788Z,13.88
2023-04-29T18:41:47.113Z,11.75
2023-04-29T18:44:14.441Z,14.73
2023-04-29T18:46:41.854Z,14.15
2023-04-29T18:49:11.825Z,12.55
2023-04-29T18:51:40.575Z,12.52
2023-04-29T18:54:08.107Z,13.13
2023-04-29T18:56:36.830Z,15.30
2023-04-29T18:59:05.574Z,14.50
2023-04-29T19:01:33.017Z,13.60
2023-04-29T19:04:04.578Z,14.68
2023-04-29T19:06:32.705Z,14.25
2023-04-29T19:09:00.793Z,12.27
2023-04-29T19:11:28.291Z,14.25
2023-04-29T19:13:56.054Z,13.32
2023-04-29T19:16:25.118Z,12.55
2023-04-29T19:18:52.832Z,14.23
2023-04-29T19:21:20.861Z,13.60
2023-04-29T19:23:48.248Z,13.98
2023-04-29T19:26:15.935Z,11.90
2023-04-29T19:28:43.361Z,15.52
2023-04-29T19:31:11.838Z,12.30
2023-04-29T19:33:39.404Z,14.70
2023-04-29T19:36:07.638Z,17.25
2023-04-29T19:38:35.058Z,17.25
2023-04-29T19:41:02.556Z,18.98
2023-04-29T19:43:30.152Z,17.73
2023-04-29T19:45:57.823Z,16.27
2023-04-29T19:48:25.264Z,13.40
2023-04-29T19:50:52.907Z,13.95
2023-04-29T19:53:20.379Z,14.90
2023-04-29T19:55:49.481Z,11.55
2023-04-29T19:58:18.754Z,18.00
2023-04-29T20:00:46.391Z,17.65
2023-04-29T20:03:13.745Z,13.93
2023-04-29T20:05:41.899Z,18.17
2023-04-29T20:08:09.415Z,10.60
2023-04-29T20:10:37.029Z,6.30
2023-04-29T20:13:04.431Z,6.97
2023-04-29T20:15:31.676Z,3.45
2023-04-29T20:17:59.174Z,5.22
2023-04-29T20:20:26.999Z,6.18
2023-04-29T20:22:58.165Z,4.85
2023-04-29T20:25:25.953Z,6.28
2023-04-29T20:27:54.114Z,4.72
2023-04-29T20:30:21.827Z,6.13
2023-04-29T20:32:49.173Z,7.00
2023-04-29T20:35:17.042Z,7.93
2023-04-29T20:37:44.685Z,6.47
2023-04-29T20:40:12.335Z,6.95
2023-04-29T20:42:39.998Z,9.48
2023-04-29T20:45:08.460Z,7.55
2023-04-29T20:47:35.728Z,9.23
2023-04-29T20:50:04.811Z,9.15
2023-04-29T20:52:32.318Z,8.27
2023-04-29T20:55:00.567Z,9.93
2023-04-29T20:57:28.160Z,12.00
2023-04-29T20:59:55.963Z,12.02
2023-04-29T21:02:23.568Z,11.60
2023-04-29T21:04:51.141Z,12.48
2023-04-29T21:07:18.362Z,12.73
2023-04-29T21:09:46.185Z,11.40
2023-04-29T21:12:14.955Z,11.18
2023-04-29T21:14:42.834Z,11.35
2023-04-29T21:17:10.409Z,12.93
2023-04-29T21:19:37.870Z,11.80
2023-04-29T21:22:05.696Z,12.70
2023-04-29T21:24:32.913Z,13.65
2023-04-29T21:27:00.196Z,12.15
2023-04-29T21:29:27.474Z,14.85
2023-04-29T21:31:54.907Z,12.07
2023-04-29T21:34:22.172Z,13.02
2023-04-29T21:36:49.397Z,10.75
2023-04-29T21:39:16.819Z,13.90
2023-04-29T21:41:44.303Z,12.27
2023-04-29T21:44:13.209Z,14.43
2023-04-29T21:46:40.666Z,14.85
2023-04-29T21:49:08.611Z,15.40
2023-04-29T21:51:36.195Z,18.65
2023-04-29T21:54:08.544Z,16.98
2023-04-29T21:56:36.357Z,15.93
2023-04-29T21:59:04.012Z,14.85
2023-04-29T22:01:48.381Z,19.02
2023-04-29T22:04:16.992Z,18.77
2023-04-29T22:06:44.295Z,17.42
2023-04-29T22:09:11.628Z,22.00
2023-04-29T22:11:39.211Z,19.20
2023-04-29T22:14:06.774Z,19.50
2023-04-29T22:16:36.004Z,18.48
2023-04-29T22:19:04.588Z,22.35
2023-04-29T22:21:31.888Z,23.08
2023-04-29T22:23:59.510Z,22.00
2023-04-29T22:26:26.918Z,22.85
2023-04-29T22:28:54.984Z,22.55
2023-04-29T22:31:22.319Z,20.50
2023-04-29T22:33:49.613Z,22.30
2023-04-29T22:36:16.980Z,20.95
2023-04-29T22:38:44.372Z,20.05
2023-04-29T22:41:11.933Z,18.17
2023-04-29T22:43:39.113Z,17.38
2023-04-29T22:46:06.369Z,17.75
2023-04-29T22:48:33.562Z,18.17
2023-04-29T22:51:01.096Z,20.48
2023-04-29T22:53:28.420Z,20.35
2023-04-29T22:55:58.623Z,18.25
2023-04-29T22:58:26.756Z,23.33
2023-04-29T23:00:59.283Z,19.35
2023-04-29T23:03:27.695Z,23.20
2023-04-29T23:05:59.713Z,21.45
2023-04-29T23:08:30.138Z,22.15
2023-04-29T23:10:57.446Z,20.23
2023-04-29T23:13:24.874Z,24.75
2023-04-29T23:15:57.347Z,22.70
2023-04-29T23:18:24.675Z,21.55
2023-04-29T23:20:51.946Z,24.70
2023-04-29T23:23:19.361Z,24.30
2023-04-29T23:25:46.854Z,27.90
2023-04-29T23:28:14.293Z,28.85
2023-04-29T23:30:41.565Z,30.55
2023-04-29T23:33:09.210Z,26.55
2023-04-29T23:35:36.738Z,27.80
2023-04-29T23:38:03.953Z,30.63
2023-04-29T23:40:31.846Z,29.25
2023-04-29T23:42:59.179Z,27.05
2023-04-29T23:45:26.351Z,30.80
2023-04-29T23:47:53.602Z,30.80
2023-04-29T23:50:20.891Z,32.75
2023-04-29T23:52:48.168Z,34.88
2023-04-29T23:55:15.438Z,36.08
2023-04-29T23:57:42.732Z,30.85
